Liberty, Iowa
Current Conditions -  °F | °C
As of 11:55 AM on Sunday 25 Jan 2015 (Local Time) from KI75 Reporting Station
Overcast Overcast  
Wind Chill: 25°   Ceiling: 700
Heat Index: 34°   Visibility: 7mi
Dew Point: 33°   Wind: 14mph
Humidity: 94%   Direction: 10°N
Pressure: 29.86"   Gusts: 22mph
Location:  41.1554°N, 93.6829°W
Report Text: KI75 251755Z AUTO 01012G19KT 7SM OVC007 01/00 A2986 RMK AO2 T00110003 10040 20010
Loading
Personal Weather Stations






























Interactive Weather Map New forecast layout! Learn more

10-Day Weather Forecast

Advertisements
Track Severe Weather on mobile